Brazil, Iowa
Current Conditions -  °F | °C
As of 10:15 AM on Tuesday 21 Oct 2014 (Local Time) from KTVK Reporting Station
Clear Clear  
Wind Chill: 55°   Ceiling: Unl
Heat Index: 55°   Visibility: 10mi
Dew Point: 45°   Wind: 7mph
Humidity: 67%   Direction: 90°E
Pressure: 30.17"   Gusts: NA
Location:  40.8017°N, 92.9289°W
Report Text: KTVK 211515Z AUTO 09006KT 10SM CLR 13/07 A3017 RMK AO2
Loading
Personal Weather Stations






























Interactive Weather Map
Tropical Storm Tracking
New forecast layout! Learn more

10-Day Weather Forecast

Advertisements
Track Severe Weather on mobile